Time;durP1;ratioP1;P1;durP2;ratioP2;P2;SDS_P1;SDS_P2;PMS_P1;PMS_P2;Temp;Humidity;BMP_temperature;BMP_pressure;BME280_temperature;BME280_humidity;BME280_pressure;Samples;Min_cycle;Max_cycle;Signal;HPM_P1;HPM_P2
2021/10/08 00:01:41;;;;;;;21.35;12.52;;;;;;;10.84;86.73;97218.22;4987177;28;20833;-75
2021/10/08 00:04:08;;;;;;;21.92;14.55;;;;;;;10.86;86.30;97221.47;4986248;28;20046;-75
2021/10/08 00:06:34;;;;;;;21.95;13.40;;;;;;;10.87;86.93;97223.88;4987503;28;20051;-75
2021/10/08 00:09:03;;;;;;;22.35;14.20;;;;;;;10.87;86.53;97229.34;4986725;28;20057;-75
2021/10/08 00:11:30;;;;;;;26.58;14.93;;;;;;;10.89;86.59;97227.09;4986524;28;20050;-75
2021/10/08 00:13:57;;;;;;;24.88;14.48;;;;;;;10.92;86.76;97228.44;4986983;28;20046;-74
2021/10/08 00:16:23;;;;;;;25.17;15.38;;;;;;;10.98;86.93;97216.34;4986423;28;20054;-75
2021/10/08 00:18:50;;;;;;;21.05;13.57;;;;;;;11.02;86.07;97214.63;4986916;28;20046;-74
2021/10/08 00:21:18;;;;;;;22.75;13.65;;;;;;;11.01;85.67;97218.44;4985911;28;20055;-75
2021/10/08 00:23:44;;;;;;;22.67;13.70;;;;;;;10.97;85.90;97223.72;4987438;28;20043;-74
2021/10/08 00:26:12;;;;;;;18.48;12.73;;;;;;;10.91;86.13;97219.47;4985829;28;20042;-74
2021/10/08 00:28:39;;;;;;;20.83;13.50;;;;;;;10.86;86.39;97219.56;4987029;28;20046;-74
2021/10/08 00:31:05;;;;;;;20.65;12.98;;;;;;;10.90;86.05;97219.75;4985837;28;20058;-75
2021/10/08 00:33:32;;;;;;;20.48;13.40;;;;;;;10.86;85.95;97219.56;4986950;28;20054;-74
2021/10/08 00:35:58;;;;;;;22.45;13.27;;;;;;;10.88;86.28;97221.97;4986444;28;20057;-74
2021/10/08 00:38:25;;;;;;;22.80;13.45;;;;;;;10.85;85.94;97225.28;4986557;28;20046;-74
2021/10/08 00:40:52;;;;;;;21.80;13.93;;;;;;;10.91;86.46;97226.81;4986525;28;20046;-75
2021/10/08 00:43:23;;;;;;;22.00;14.18;;;;;;;10.96;86.14;97221.25;4985410;28;20046;-75
2021/10/08 00:45:50;;;;;;;22.40;14.02;;;;;;;10.98;86.24;97216.34;4986774;28;20043;-74
2021/10/08 00:48:18;;;;;;;19.75;13.15;;;;;;;11.00;85.72;97211.38;4985456;28;20060;-75
2021/10/08 00:50:47;;;;;;;19.58;12.93;;;;;;;11.02;85.80;97208.38;4987044;28;20042;-77
2021/10/08 00:53:14;;;;;;;18.35;12.68;;;;;;;11.01;85.65;97213.00;4985571;28;20140;-76
2021/10/08 00:55:44;;;;;;;19.02;13.18;;;;;;;11.01;85.71;97213.00;4986255;28;20077;-75
2021/10/08 00:58:12;;;;;;;18.17;12.88;;;;;;;11.01;85.65;97207.56;4985533;28;20050;-75
2021/10/08 01:00:41;;;;;;;17.30;12.32;;;;;;;10.97;85.37;97207.34;4986138;28;20042;-75
2021/10/08 01:03:08;;;;;;;21.70;13.23;;;;;;;10.94;85.44;97209.88;4985690;28;20051;-74
2021/10/08 01:05:35;;;;;;;21.13;13.35;;;;;;;10.90;85.88;97206.13;4985537;28;20707;-75
2021/10/08 01:08:01;;;;;;;22.73;13.68;;;;;;;10.84;86.01;97207.31;4986085;28;20411;-70
2021/10/08 01:10:28;;;;;;;22.15;13.75;;;;;;;10.75;86.33;97214.53;4985560;28;20057;-75
2021/10/08 01:12:54;;;;;;;19.52;13.10;;;;;;;10.73;86.65;97211.31;4985471;28;20497;-75
2021/10/08 01:15:21;;;;;;;21.55;14.15;;;;;;;10.70;86.58;97208.09;4985366;28;20513;-75
2021/10/08 01:17:52;;;;;;;23.52;14.07;;;;;;;10.70;86.77;97208.09;4986224;28;20050;-74
2021/10/08 01:20:22;;;;;;;23.88;14.25;;;;;;;10.70;87.14;97208.09;4985719;28;20123;-75
2021/10/08 01:22:48;;;;;;;22.10;14.27;;;;;;;10.71;87.36;97207.00;4985598;28;20050;-74
2021/10/08 01:25:16;;;;;;;20.73;13.27;;;;;;;10.71;87.06;97208.91;4985663;28;20058;-75
2021/10/08 01:27:43;;;;;;;22.50;14.77;;;;;;;10.69;87.41;97195.56;4985409;28;20050;-74
2021/10/08 01:30:11;;;;;;;25.55;15.10;;;;;;;10.68;87.56;97198.59;4985978;28;20054;-75
2021/10/08 01:32:38;;;;;;;21.85;14.55;;;;;;;10.67;88.05;97196.97;4984946;28;20073;-75
2021/10/08 01:35:06;;;;;;;24.25;15.35;;;;;;;10.74;87.75;97202.03;4986337;28;20042;-74
2021/10/08 01:37:35;;;;;;;24.20;14.43;;;;;;;10.74;87.66;97193.88;4985491;28;20061;-75
2021/10/08 01:40:03;;;;;;;22.23;14.80;;;;;;;10.67;87.38;97197.78;4986145;28;20054;-74
2021/10/08 01:42:29;;;;;;;26.05;15.60;;;;;;;10.71;87.77;97198.81;4985356;28;20062;-75
2021/10/08 01:44:56;;;;;;;26.33;14.98;;;;;;;10.82;88.04;97204.09;4985670;28;20141;-74
2021/10/08 01:47:22;;;;;;;21.95;15.13;;;;;;;10.82;87.67;97201.38;4985083;28;20061;-75
2021/10/08 01:49:49;;;;;;;25.25;15.10;;;;;;;10.88;87.89;97197.44;4985409;28;20485;-76
2021/10/08 01:52:16;;;;;;;24.33;14.98;;;;;;;10.90;87.78;97200.66;4983563;28;20117;-76
2021/10/08 01:54:44;;;;;;;30.83;16.08;;;;;;;10.95;87.52;97187.75;4984969;28;20050;-74
2021/10/08 01:57:11;;;;;;;24.75;15.45;;;;;;;11.00;87.50;97189.59;4985660;28;20050;-74
2021/10/08 01:59:38;;;;;;;22.80;15.00;;;;;;;11.01;87.40;97195.84;4972375;28;20568;-75
2021/10/08 02:02:04;;;;;;;28.73;16.02;;;;;;;11.01;87.22;97193.91;4974391;28;20054;-75
2021/10/08 02:04:31;;;;;;;24.52;15.73;;;;;;;11.06;86.98;97202.00;4984828;28;20069;-75
2021/10/08 02:06:57;;;;;;;23.35;14.98;;;;;;;11.10;85.87;97197.56;4985653;28;20050;-75
2021/10/08 02:09:24;;;;;;;21.08;14.30;;;;;;;11.11;85.38;97196.47;4984474;28;20074;-74
2021/10/08 02:11:52;;;;;;;24.50;15.40;;;;;;;11.09;85.44;97195.97;4985299;28;20061;-74
2021/10/08 02:14:18;;;;;;;25.33;15.52;;;;;;;11.13;85.30;97196.19;4985095;28;20053;-74
2021/10/08 02:16:45;;;;;;;22.95;15.00;;;;;;;11.17;85.00;97191.72;4984630;28;20584;-75
2021/10/08 02:19:11;;;;;;;21.05;13.77;;;;;;;11.20;85.14;97193.88;4985309;28;20055;-75
2021/10/08 02:21:38;;;;;;;23.20;15.48;;;;;;;11.17;85.03;97191.72;4984348;28;20053;-74
2021/10/08 02:24:05;;;;;;;25.42;15.85;;;;;;;11.13;84.66;97197.00;4985934;28;20058;-75
2021/10/08 02:26:31;;;;;;;26.85;15.95;;;;;;;11.10;85.25;97200.31;4988216;28;20058;-75
2021/10/08 02:28:59;;;;;;;26.65;15.63;;;;;;;11.09;84.41;97195.97;4988860;28;20054;-75
2021/10/08 02:31:26;;;;;;;26.58;14.48;;;;;;;11.06;84.61;97193.84;4987827;28;20047;-74
2021/10/08 02:33:52;;;;;;;25.15;15.57;;;;;;;11.10;85.04;97200.31;4988879;28;20633;-75
2021/10/08 02:36:19;;;;;;;24.00;15.82;;;;;;;11.13;84.76;97194.25;4988423;28;20073;-75
2021/10/08 02:38:46;;;;;;;28.13;16.13;;;;;;;11.13;84.79;97204.38;4987765;28;20054;-74
2021/10/08 02:41:13;;;;;;;29.30;16.30;;;;;;;11.11;84.88;97195.66;4988420;28;20050;-74
2021/10/08 02:43:39;;;;;;;28.17;16.70;;;;;;;11.11;85.29;97196.47;4987669;28;20052;-74
2021/10/08 02:46:07;;;;;;;27.35;17.33;;;;;;;11.13;85.49;97196.19;4988312;28;20421;-75
2021/10/08 02:48:34;;;;;;;25.98;15.60;;;;;;;11.07;85.37;97192.75;4988822;28;20038;-74
2021/10/08 02:51:01;;;;;;;24.00;15.40;;;;;;;11.09;85.54;97193.25;4988646;28;20046;-75
2021/10/08 02:53:27;;;;;;;27.48;17.50;;;;;;;11.15;85.41;97193.97;4986187;28;20516;-74
2021/10/08 02:55:54;;;;;;;25.83;16.70;;;;;;;11.22;85.01;97197.91;4987952;28;20054;-75
2021/10/08 02:58:20;;;;;;;31.05;16.17;;;;;;;11.25;84.59;97196.50;4987440;28;20046;-75
2021/10/08 03:00:47;;;;;;;27.10;15.75;;;;;;;11.23;84.34;97199.53;4987871;28;20046;-77
2021/10/08 03:03:15;;;;;;;26.35;15.48;;;;;;;11.24;84.63;97200.34;4987618;28;20054;-74
2021/10/08 03:05:41;;;;;;;26.70;17.38;;;;;;;11.27;84.43;97190.72;4987940;28;20050;-74
2021/10/08 03:08:08;;;;;;;30.65;16.35;;;;;;;11.27;84.94;97199.72;4988248;28;20054;-74
2021/10/08 03:10:35;;;;;;;25.60;16.65;;;;;;;11.31;84.75;97194.47;4987818;28;20050;-76
2021/10/08 03:13:01;;;;;;;24.13;14.68;;;;;;;11.36;84.39;97197.09;4988484;28;20047;-73
2021/10/08 03:15:28;;;;;;;23.63;14.68;;;;;;;11.38;83.79;97197.59;4987360;28;20050;-76
2021/10/08 03:17:55;;;;;;;25.13;15.55;;;;;;;11.37;83.72;97199.53;4987866;28;20584;-76
2021/10/08 03:20:23;;;;;;;26.15;15.35;;;;;;;11.40;83.67;97198.13;4987342;28;20050;-74
2021/10/08 03:22:50;;;;;;;26.27;16.17;;;;;;;11.36;83.85;97192.47;4986310;28;20047;-74
2021/10/08 03:25:16;;;;;;;26.08;15.65;;;;;;;11.42;83.50;97190.44;4987675;28;20497;-74
2021/10/08 03:27:43;;;;;;;25.05;15.60;;;;;;;11.39;83.51;97186.41;4987124;28;20049;-76
2021/10/08 03:30:12;;;;;;;25.63;16.15;;;;;;;11.35;84.04;97184.59;4987772;28;20057;-74
2021/10/08 03:32:39;;;;;;;26.08;15.85;;;;;;;11.36;84.17;97187.00;4986962;28;20497;-74
2021/10/08 03:35:06;;;;;;;27.83;15.93;;;;;;;11.38;83.42;97189.41;4987950;28;20510;-75
2021/10/08 03:37:40;;;;;;;25.45;15.90;;;;;;;11.34;83.32;97189.25;4986360;28;20069;-75
2021/10/08 03:40:09;;;;;;;25.55;15.13;;;;;;;11.40;83.63;97187.22;4987351;28;20263;-75
2021/10/08 03:42:35;;;;;;;24.92;15.10;;;;;;;11.39;83.83;97188.34;4987244;28;20070;-74
2021/10/08 03:45:09;;;;;;;25.58;15.63;;;;;;;11.40;84.15;97198.13;4987053;28;20425;-73
2021/10/08 03:47:50;;;;;;;25.52;16.33;;;;;;;11.40;84.13;97192.66;4987809;28;20042;-74
2021/10/08 03:50:16;;;;;;;27.85;15.60;;;;;;;11.38;84.16;97189.41;4986643;28;20086;-76
2021/10/08 03:52:44;;;;;;;25.27;16.15;;;;;;;11.39;84.23;97199.25;4987478;28;20046;-74
2021/10/08 03:55:11;;;;;;;23.88;15.75;;;;;;;11.41;84.61;97195.09;4986222;28;20058;-74
2021/10/08 03:57:37;;;;;;;28.02;16.10;;;;;;;11.46;84.32;97192.25;4987480;28;20417;-74
2021/10/08 04:00:05;;;;;;;21.65;14.65;;;;;;;11.51;84.14;97188.63;4986173;28;20050;-73
2021/10/08 04:02:31;;;;;;;25.98;15.65;;;;;;;11.50;84.02;97192.47;4987609;28;20046;-74
2021/10/08 04:04:57;;;;;;;23.08;15.15;;;;;;;11.53;84.46;97200.03;4987060;28;20062;-74
2021/10/08 04:07:24;;;;;;;24.63;15.00;;;;;;;11.55;84.71;97197.81;4986498;28;20046;-74
2021/10/08 04:09:52;;;;;;;21.73;15.23;;;;;;;11.61;84.31;97198.53;4987335;28;20038;-74
2021/10/08 04:12:18;;;;;;;24.20;14.13;;;;;;;11.63;83.46;97205.28;4986114;28;20390;-76
2021/10/08 04:14:45;;;;;;;20.98;14.07;;;;;;;11.64;83.51;97201.47;4987175;28;20413;-74
2021/10/08 04:17:11;;;;;;;22.23;13.82;;;;;;;11.67;83.65;97205.50;4986423;28;20054;-75
2021/10/08 04:19:38;;;;;;;20.50;13.30;;;;;;;11.67;83.29;97200.03;4987622;28;20058;-74
2021/10/08 04:22:04;;;;;;;21.83;14.32;;;;;;;11.65;83.09;97200.34;4985495;28;20057;-74
2021/10/08 04:24:31;;;;;;;24.17;14.05;;;;;;;11.66;83.50;97196.50;4987023;28;20428;-74
2021/10/08 04:26:58;;;;;;;22.55;14.68;;;;;;;11.65;83.28;97200.34;4986633;28;20050;-74
2021/10/08 04:29:25;;;;;;;23.00;15.40;;;;;;;11.68;83.79;97190.72;4986520;28;20046;-75
2021/10/08 04:31:51;;;;;;;23.40;14.20;;;;;;;11.70;83.97;97196.72;4986951;28;20600;-74
2021/10/08 04:34:18;;;;;;;23.27;14.65;;;;;;;11.67;83.92;97198.13;4985773;28;20056;-75
2021/10/08 04:36:44;;;;;;;23.40;14.38;;;;;;;11.64;84.10;97201.47;4987078;28;20049;-75
2021/10/08 04:39:11;;;;;;;21.85;13.43;;;;;;;11.65;84.29;97194.91;4985642;28;20089;-74
2021/10/08 04:41:37;;;;;;;21.13;14.43;;;;;;;11.67;84.06;97192.66;4987086;28;20058;-75
2021/10/08 04:44:06;;;;;;;24.45;15.18;;;;;;;11.69;84.01;97195.06;4985616;28;20050;-79
2021/10/08 04:46:32;;;;;;;23.08;15.25;;;;;;;11.68;84.25;97194.28;4987234;28;20042;-75
2021/10/08 04:48:59;;;;;;;22.60;14.82;;;;;;;11.68;84.05;97194.28;4984911;28;20049;-74
2021/10/08 04:51:25;;;;;;;22.42;14.85;;;;;;;11.70;83.58;97191.25;4985227;28;20067;-74
2021/10/08 04:53:52;;;;;;;22.50;14.50;;;;;;;11.71;83.53;97185.50;4986156;28;20042;-74
2021/10/08 04:56:18;;;;;;;20.77;14.15;;;;;;;11.71;83.57;97188.22;4985472;28;20664;-74
2021/10/08 04:58:45;;;;;;;22.77;15.68;;;;;;;11.71;83.72;97188.22;4986172;28;20508;-74
2021/10/08 05:01:13;;;;;;;26.60;14.93;;;;;;;11.71;83.71;97196.41;4985499;28;20050;-75
2021/10/08 05:03:39;;;;;;;23.02;14.68;;;;;;;11.71;83.86;97203.78;4986613;28;20045;-74
2021/10/08 05:06:05;;;;;;;28.40;15.27;;;;;;;11.72;84.00;97200.75;4985529;28;20054;-74
2021/10/08 05:08:32;;;;;;;26.42;14.85;;;;;;;11.74;84.00;97198.53;4986577;28;20054;-74
2021/10/08 05:10:58;;;;;;;24.95;15.43;;;;;;;11.81;83.31;97197.31;4985852;28;20049;-75
2021/10/08 05:13:25;;;;;;;20.13;14.20;;;;;;;11.80;83.36;97196.50;4985826;28;20413;-74
2021/10/08 05:15:51;;;;;;;22.77;15.35;;;;;;;11.81;83.80;97197.31;4986082;28;20057;-74
2021/10/08 05:18:19;;;;;;;25.23;14.82;;;;;;;11.81;83.69;97202.75;4985531;28;20505;-74
2021/10/08 05:20:46;;;;;;;24.08;16.02;;;;;;;11.82;84.15;97196.22;4986145;28;20050;-74
2021/10/08 05:23:12;;;;;;;21.20;14.48;;;;;;;11.84;83.90;97192.06;4984627;28;20524;-74
2021/10/08 05:25:39;;;;;;;24.30;15.05;;;;;;;11.87;83.83;97191.47;4986180;28;20046;-75
2021/10/08 05:28:05;;;;;;;21.98;15.13;;;;;;;11.88;83.70;97186.81;4985024;28;20092;-74
2021/10/08 05:30:32;;;;;;;21.35;15.05;;;;;;;11.87;83.77;97190.66;4986480;28;20050;-74
2021/10/08 05:32:58;;;;;;;25.30;15.23;;;;;;;11.89;83.69;97191.16;4985184;28;20084;-74
2021/10/08 05:35:27;;;;;;;24.75;15.43;;;;;;;11.89;83.94;97189.22;4985525;28;20061;-74
2021/10/08 05:37:54;;;;;;;22.13;15.23;;;;;;;11.91;83.44;97197.13;4985447;28;20046;-74
2021/10/08 05:40:20;;;;;;;27.15;16.88;;;;;;;11.91;83.51;97197.13;4985519;28;20050;-73
2021/10/08 05:42:47;;;;;;;25.52;16.23;;;;;;;11.89;83.84;97196.59;4985166;28;20058;-74
2021/10/08 05:45:13;;;;;;;26.33;16.35;;;;;;;11.90;83.86;97204.50;4985027;28;20058;-75
2021/10/08 05:47:40;;;;;;;25.05;16.00;;;;;;;11.93;83.89;97197.63;4985381;28;20043;-75
2021/10/08 05:50:07;;;;;;;24.48;15.90;;;;;;;11.95;83.66;97206.28;4984994;28;20452;-75
2021/10/08 05:52:35;;;;;;;23.30;15.77;;;;;;;11.94;83.34;97201.94;4984734;28;20054;-74
2021/10/08 05:55:01;;;;;;;24.27;14.98;;;;;;;11.94;82.99;97205.50;4985233;28;20053;-74
2021/10/08 05:57:28;;;;;;;25.75;15.30;;;;;;;11.96;82.90;97205.19;4985748;28;20066;-74
2021/10/08 05:59:54;;;;;;;23.88;15.18;;;;;;;12.00;82.57;97200.72;4984466;28;20057;-75
2021/10/08 06:02:21;;;;;;;22.98;14.52;;;;;;;11.96;82.42;97202.47;4985106;28;20593;-75
2021/10/08 06:04:47;;;;;;;21.30;14.77;;;;;;;11.91;82.81;97199.84;4985148;28;20061;-75
2021/10/08 06:07:13;;;;;;;21.92;15.30;;;;;;;11.86;82.68;97205.41;4984714;28;20046;-75
2021/10/08 06:09:45;;;;;;;25.95;16.88;;;;;;;11.85;82.61;97209.22;4985311;28;20051;-74
2021/10/08 06:12:12;;;;;;;25.30;16.50;;;;;;;11.89;82.71;97212.97;4984695;28;20047;-75
2021/10/08 06:14:39;;;;;;;25.05;14.98;;;;;;;11.93;82.97;97211.25;4985474;28;20039;-74
2021/10/08 06:17:05;;;;;;;24.60;15.30;;;;;;;11.96;83.00;97213.38;4984290;28;20073;-75
2021/10/08 06:19:32;;;;;;;22.33;15.52;;;;;;;12.00;83.53;97217.09;4985408;28;20050;-75
2021/10/08 06:21:58;;;;;;;29.40;16.25;;;;;;;11.98;83.24;97213.88;4984367;28;20433;-75
2021/10/08 06:24:25;;;;;;;23.65;15.88;;;;;;;11.96;83.24;97210.66;4984943;28;20050;-75
2021/10/08 06:26:53;;;;;;;23.27;14.75;;;;;;;11.99;83.39;97215.50;4984732;28;20054;-77
2021/10/08 06:29:19;;;;;;;24.05;15.35;;;;;;;12.02;83.04;97217.63;4984506;28;20055;-75
2021/10/08 06:31:46;;;;;;;23.83;14.40;;;;;;;12.03;83.13;97227.41;4985263;28;20058;-74
2021/10/08 06:34:12;;;;;;;21.13;14.68;;;;;;;12.06;82.92;97221.38;4984224;28;20099;-75
2021/10/08 06:36:39;;;;;;;26.85;15.20;;;;;;;12.08;83.00;97224.59;4985149;28;20050;-74
2021/10/08 06:39:06;;;;;;;21.35;15.40;;;;;;;12.10;83.10;97227.81;4983902;28;20421;-75
2021/10/08 06:41:32;;;;;;;26.65;17.38;;;;;;;12.10;83.21;97227.81;4985960;28;20058;-74
2021/10/08 06:44:00;;;;;;;22.42;15.60;;;;;;;12.14;83.37;97234.28;4984489;28;20061;-74
2021/10/08 06:46:27;;;;;;;21.67;14.48;;;;;;;12.16;82.58;97232.06;4985168;28;20049;-74
2021/10/08 06:48:53;;;;;;;24.48;15.30;;;;;;;12.14;82.72;97244.38;4984325;28;20065;-75
2021/10/08 06:51:20;;;;;;;25.80;14.70;;;;;;;12.14;82.98;97241.66;4984374;28;20050;-75
2021/10/08 06:53:46;;;;;;;21.17;15.68;;;;;;;12.18;82.75;97240.75;4985322;28;20042;-74
2021/10/08 06:56:13;;;;;;;24.08;15.30;;;;;;;12.19;82.78;97242.34;4984155;28;20055;-75
2021/10/08 06:58:39;;;;;;;22.38;13.90;;;;;;;12.21;82.44;97240.13;4984670;28;20046;-75
2021/10/08 07:01:07;;;;;;;21.17;14.43;;;;;;;12.21;82.54;97244.78;4984354;28;20432;-75
2021/10/08 07:03:33;;;;;;;23.38;15.50;;;;;;;12.20;82.42;97243.97;4985140;28;20054;-74
2021/10/08 07:06:00;;;;;;;21.45;14.77;;;;;;;12.22;82.31;97241.75;4983984;28;20046;-74
2021/10/08 07:08:26;;;;;;;22.35;14.15;;;;;;;12.22;82.48;97240.94;4984895;28;20053;-74
2021/10/08 07:10:53;;;;;;;20.33;14.18;;;;;;;12.24;82.37;97244.16;4984529;28;20505;-74
2021/10/08 07:13:19;;;;;;;21.73;15.00;;;;;;;12.19;82.01;97241.53;4987827;28;20073;-74
2021/10/08 07:15:46;;;;;;;20.45;13.95;;;;;;;12.17;82.25;97241.06;4987306;28;20046;-74
2021/10/08 07:18:17;;;;;;;18.02;13.57;;;;;;;12.18;82.33;97246.22;4987421;28;20552;-75
2021/10/08 07:20:45;;;;;;;23.33;14.18;;;;;;;12.15;82.45;97246.81;4987857;28;20186;-75
2021/10/08 07:23:11;;;;;;;24.30;14.50;;;;;;;12.17;81.89;97236.41;4985943;28;20568;-74
2021/10/08 07:25:38;;;;;;;22.55;15.82;;;;;;;12.12;82.45;97241.16;4988075;28;20054;-74
2021/10/08 07:28:04;;;;;;;22.85;16.23;;;;;;;12.13;82.32;97243.59;4986715;28;20050;-74
2021/10/08 07:30:31;;;;;;;22.48;15.27;;;;;;;12.09;82.24;97242.56;4988231;28;20509;-75
2021/10/08 07:32:57;;;;;;;20.83;14.43;;;;;;;12.09;82.71;97248.03;4986890;28;20058;-74
2021/10/08 07:35:26;;;;;;;23.05;16.10;;;;;;;12.03;82.99;97241.06;4988004;28;20065;-75
2021/10/08 07:37:52;;;;;;;21.95;15.20;;;;;;;11.98;83.30;97241.19;4987103;28;20042;-76
2021/10/08 07:40:19;;;;;;;24.08;15.35;;;;;;;12.02;83.63;97247.66;4987411;28;20141;-75
2021/10/08 07:42:45;;;;;;;24.65;16.05;;;;;;;12.02;83.75;97253.09;4987098;28;20054;-75
2021/10/08 07:45:12;;;;;;;25.83;16.20;;;;;;;12.03;84.17;97249.25;4987290;28;20153;-76
2021/10/08 07:47:39;;;;;;;26.73;16.92;;;;;;;12.06;84.26;97253.28;4987182;28;20046;-74
2021/10/08 07:50:08;;;;;;;25.73;16.70;;;;;;;12.11;84.42;97251.28;4986722;28;20125;-76
2021/10/08 07:52:36;;;;;;;27.70;16.10;;;;;;;12.11;84.75;97245.00;4987149;28;20509;-74
2021/10/08 07:55:04;;;;;;;28.25;16.20;;;;;;;12.12;84.65;97252.91;4986588;28;20058;-74
2021/10/08 07:57:30;;;;;;;28.15;17.08;;;;;;;12.13;84.99;97257.22;4987412;28;20053;-74
2021/10/08 07:59:57;;;;;;;27.63;16.60;;;;;;;12.13;84.70;97253.69;4986755;28;20464;-74
2021/10/08 08:02:23;;;;;;;24.73;16.85;;;;;;;12.12;84.74;97255.63;4986980;28;20065;-79
2021/10/08 08:04:50;;;;;;;24.70;16.67;;;;;;;12.09;84.53;97258.94;4986998;28;20054;-75
2021/10/08 08:07:16;;;;;;;26.60;15.85;;;;;;;12.07;84.55;97261.19;4986636;28;20050;-75
2021/10/08 08:09:44;;;;;;;24.58;15.85;;;;;;;12.15;84.60;97263.19;4987198;28;20050;-74
2021/10/08 08:12:11;;;;;;;21.65;14.88;;;;;;;12.18;84.28;97265.31;4986429;28;20504;-75
2021/10/08 08:14:37;;;;;;;24.85;16.90;;;;;;;12.21;84.02;97267.41;4987061;28;20497;-75
2021/10/08 08:17:04;;;;;;;25.00;16.42;;;;;;;12.15;84.48;97273.31;4985930;28;20061;-77
2021/10/08 08:19:30;;;;;;;24.45;16.30;;;;;;;12.10;84.34;97263.28;4987464;28;20050;-75
2021/10/08 08:21:57;;;;;;;27.98;17.67;;;;;;;12.13;84.28;97270.88;4985033;28;20054;-74
2021/10/08 08:24:23;;;;;;;28.92;17.80;;;;;;;12.13;85.03;97273.63;4986466;28;20076;-75
2021/10/08 08:26:51;;;;;;;30.42;17.83;;;;;;;12.12;85.24;97269.28;4986273;28;20050;-75
2021/10/08 08:29:18;;;;;;;31.40;18.13;;;;;;;12.04;85.64;97263.72;4986403;28;20062;-75
2021/10/08 08:31:45;;;;;;;28.90;17.92;;;;;;;12.01;86.12;97267.88;4986534;28;20081;-75
2021/10/08 08:34:11;;;;;;;27.58;17.75;;;;;;;11.96;86.24;97257.88;4986182;28;20061;-76
2021/10/08 08:36:38;;;;;;;31.15;19.27;;;;;;;11.89;86.94;97265.63;4986873;28;20059;-75
2021/10/08 08:39:08;;;;;;;32.33;19.48;;;;;;;11.84;87.15;97262.22;4985719;28;20054;-75
2021/10/08 08:41:34;;;;;;;29.45;18.98;;;;;;;11.85;87.39;97261.94;4987034;28;20050;-76
2021/10/08 08:44:03;;;;;;;34.22;20.40;;;;;;;11.87;87.49;97256.16;4986194;28;20053;-76
2021/10/08 08:46:29;;;;;;;33.30;20.13;;;;;;;11.87;87.88;97261.59;4987148;28;20397;-76
2021/10/08 08:48:56;;;;;;;33.22;20.90;;;;;;;11.91;87.97;97257.16;4985664;28;20054;-75
2021/10/08 08:51:25;;;;;;;31.63;19.83;;;;;;;11.92;88.04;97258.78;4985834;28;20068;-77
2021/10/08 08:53:52;;;;;;;34.55;21.23;;;;;;;11.97;88.30;97266.88;4986204;28;20044;-77
2021/10/08 08:56:18;;;;;;;35.92;21.75;;;;;;;12.02;88.55;97262.09;4985822;28;20501;-76
2021/10/08 08:58:45;;;;;;;31.60;20.52;;;;;;;12.02;88.55;97255.84;4986096;28;20524;-76
2021/10/08 09:01:12;;;;;;;34.33;19.80;;;;;;;12.00;89.04;97258.03;4985438;28;20417;-76
2021/10/08 09:03:39;;;;;;;29.75;19.00;;;;;;;12.04;89.25;97256.34;4986362;28;20046;-76
2021/10/08 09:06:09;;;;;;;28.63;18.15;;;;;;;12.06;89.21;97248.66;4985273;28;20050;-76
2021/10/08 09:08:36;;;;;;;33.92;18.17;;;;;;;12.09;88.75;97248.03;4986588;28;20050;-75
2021/10/08 09:11:05;;;;;;;29.02;18.05;;;;;;;12.08;88.79;97253.81;4985310;28;20051;-76
2021/10/08 09:13:32;;;;;;;27.48;17.38;;;;;;;12.07;89.11;97250.28;4986120;28;20413;-77
2021/10/08 09:16:03;;;;;;;24.83;16.90;;;;;;;12.09;89.00;97250.75;4985704;28;20056;-76
2021/10/08 09:18:33;;;;;;;31.05;17.60;;;;;;;12.05;89.14;97254.41;5067644;28;20064;-77
2021/10/08 09:21:10;;;;;;;28.63;17.52;;;;;;;12.06;89.42;97247.81;5068107;28;20160;-76
2021/10/08 09:23:39;;;;;;;30.25;18.10;;;;;;;12.03;89.78;97249.25;4946514;28;20039;-76
2021/10/08 09:26:15;;;;;;;36.05;19.02;;;;;;;12.01;90.09;97246.03;4947436;28;20804;-76
2021/10/08 09:28:55;;;;;;;29.33;16.58;;;;;;;12.04;90.34;97244.59;4946508;28;20057;-77
2021/10/08 09:31:26;;;;;;;26.02;16.48;;;;;;;12.10;90.38;97246.91;4949946;28;20058;-76
2021/10/08 09:34:11;;;;;;;27.60;16.92;;;;;;;12.17;90.60;97239.13;4965190;28;20054;-77
2021/10/08 09:36:38;;;;;;;29.10;16.85;;;;;;;12.23;90.45;97237.09;4966006;28;20104;-76
2021/10/08 09:39:17;;;;;;;26.63;15.65;;;;;;;12.23;90.30;97243.38;4966398;28;20074;-77
2021/10/08 09:41:56;;;;;;;23.50;15.43;;;;;;;12.26;90.32;97244.66;4966006;28;20050;-76
2021/10/08 09:44:24;;;;;;;31.70;17.40;;;;;;;12.28;90.53;97240.53;4966518;28;20157;-75
2021/10/08 09:46:50;;;;;;;26.83;16.35;;;;;;;12.34;90.59;97238.47;4965733;28;20046;-76
2021/10/08 09:49:23;;;;;;;22.05;15.35;;;;;;;12.38;90.66;97244.16;4965925;28;20525;-76
2021/10/08 09:51:49;;;;;;;27.58;16.55;;;;;;;12.35;90.46;97242.81;4964929;28;20051;-75
2021/10/08 09:54:16;;;;;;;26.02;15.77;;;;;;;12.28;90.49;97232.31;4965689;28;20055;-76
2021/10/08 09:56:43;;;;;;;23.20;14.77;;;;;;;12.28;90.67;97239.72;4965918;28;20658;-77
2021/10/08 09:59:11;;;;;;;26.65;14.57;;;;;;;12.31;90.85;97243.75;4965311;28;20497;-76
2021/10/08 10:01:39;;;;;;;26.60;15.93;;;;;;;12.34;90.76;97237.69;4966407;28;20050;-77
2021/10/08 10:04:08;;;;;;;25.60;14.80;;;;;;;12.33;90.82;97233.34;4965435;28;20063;-76
2021/10/08 10:06:37;;;;;;;28.60;16.67;;;;;;;12.39;90.96;97238.38;4966284;28;20055;-76
2021/10/08 10:09:06;;;;;;;24.95;15.23;;;;;;;12.40;90.85;97237.25;4965143;28;20043;-75
2021/10/08 10:11:34;;;;;;;25.33;15.98;;;;;;;12.43;91.08;97235.84;4965883;28;20100;-76
2021/10/08 10:14:00;;;;;;;24.77;15.45;;;;;;;12.41;91.29;97232.59;4965933;28;20051;-77
2021/10/08 10:16:29;;;;;;;22.05;14.02;;;;;;;12.37;90.91;97231.59;4965253;28;20649;-75
2021/10/08 10:18:57;;;;;;;22.50;14.63;;;;;;;12.37;90.87;97234.31;4966377;28;20057;-76
2021/10/08 10:21:26;;;;;;;23.58;14.55;;;;;;;12.40;90.85;97236.44;4965155;28;20057;-75
2021/10/08 10:23:54;;;;;;;24.60;15.32;;;;;;;12.41;91.02;97232.59;4966612;28;20047;-76
2021/10/08 10:26:22;;;;;;;25.23;15.40;;;;;;;12.46;90.83;97235.19;4964641;28;20050;-76
2021/10/08 10:28:49;;;;;;;30.13;16.15;;;;;;;12.48;90.57;97241.19;4966155;28;20414;-75
2021/10/08 10:31:16;;;;;;;24.98;15.30;;;;;;;12.46;90.76;97237.94;4964547;28;20054;-77
2021/10/08 10:33:43;;;;;;;29.75;16.90;;;;;;;12.51;90.99;97226.88;4966076;28;20589;-76
2021/10/08 10:36:22;;;;;;;25.88;15.25;;;;;;;12.56;91.04;97228.69;4964677;28;20062;-76
2021/10/08 10:38:49;;;;;;;25.67;15.35;;;;;;;12.61;91.23;97221.19;4965190;28;20078;-76
2021/10/08 10:41:26;;;;;;;25.80;16.90;;;;;;;12.71;91.30;97220.94;4965448;28;20051;-76
2021/10/08 10:43:57;;;;;;;24.13;16.23;;;;;;;12.82;91.09;97220.69;4964976;28;20062;-77
2021/10/08 10:46:36;;;;;;;27.83;17.73;;;;;;;12.94;90.62;97224.47;4966571;28;20051;-76
2021/10/08 10:52:26;;;;;;;23.27;16.00;;;;;;;13.27;88.82;97221.50;4940592;28;20073;-76
2021/10/08 10:55:09;;;;;;;21.83;14.75;;;;;;;13.39;87.32;97229.91;4968955;28;20066;-75
2021/10/08 10:58:08;;;;;;;20.63;14.43;;;;;;;13.49;86.25;97224.16;4968184;28;20050;-76
2021/10/08 11:01:00;;;;;;;23.05;14.02;;;;;;;13.48;84.23;97229.97;4969401;28;20410;-76
2021/10/08 11:03:34;;;;;;;21.10;14.57;;;;;;;13.56;84.64;97229.19;4949797;28;20130;-75
2021/10/08 11:06:23;;;;;;;22.35;15.15;;;;;;;13.70;85.06;97229.06;4948900;28;20055;-75
2021/10/08 11:09:22;;;;;;;20.50;13.93;;;;;;;13.81;84.33;97225.72;4949609;28;20564;-76
2021/10/08 11:12:27;;;;;;;19.30;13.48;;;;;;;13.93;82.72;97216.09;4948862;28;20055;-75
2021/10/08 11:15:29;;;;;;;19.83;13.43;;;;;;;14.02;80.65;97225.13;4948400;28;20055;-75
2021/10/08 11:17:58;;;;;;;19.08;12.75;;;;;;;13.98;78.61;97224.97;4968383;28;20053;-75
2021/10/08 11:20:44;;;;;;;18.08;13.25;;;;;;;14.04;79.44;97214.66;4967949;28;20051;-75
2021/10/08 11:23:26;;;;;;;20.73;13.57;;;;;;;14.05;79.22;97210.81;4983549;28;20058;-75
2021/10/08 11:25:55;;;;;;;18.93;13.57;;;;;;;14.11;80.06;97212.28;4988207;28;20042;-75